Airfield :







YOU CAN JOIN US ON...

 
LOGIN :

Register | Disclaimer

   EN    FR    IT 

 









Legend :    VFR   Marginal VFR   IFR   Intensive IFR   Very Intensive IFR
Visi :
Ceiling :
>= 8 km
>= 3000ft
5 to 8 km
1000 to 3000 ft
1500m to 5 km
500 to 1000 ft
800 to 1500m
200 to 500 ft
< 800m
< 200 ft
Symbols :   Thunderstorms  Fog  Heavy snow  Heavy precipitations  Wind > 20 kt






- Airport Elevation : 129 ft
- IATA code : YVP


CYVP - Kuujjuak

CURRENT METAR :
  • 080600Z 21008KT 1 1/2SM -SN VV013 M07/M08 A2922 RMK SN8 SLP899

EXPIRED METARs :
  • 080500Z 20011KT 2SM -SN VV018 M07/M08 A2922 RMK SN8 /S01/ SLP901
  • 080416Z 20008KT 2 1/2SM -SN VV021 M07/M09 A2923 RMK SN8 SLP904
  • 080400Z 20008KT 8SM -SN BKN031 OVC065 M07/M09 A2923 RMK SN2SC5SC1 SLP905
  • 080322Z 19010KT 4SM -SN BKN031 BKN065 OVC074 M07/M09 A2924 RMK SN2SC4SC1AC1 SLP908

TAF TAF CYVP
Valid from the 08 at 06:00 until the 08 at 18:00 UTC


080540Z 0806/0818 17010KT 2SM -SN OVC015
TEMPO 0806/0809 4SM -SN OVC030
FM080900 28015G25KT 6SM -SN OVC030
TEMPO 0809/0812 4SM -SN OVC020
FM081200 28012KT P6SM BKN025
TEMPO 0812/0818 BKN020 RMK NXT FCST BY 081200Z
CZUL FIR / North America



MET'MAP, your aeronautical weather chart ! - Copyright ORBIFLY December 2007 - Disclaimer

ORBIFLY MET'MAP TEAM :

Programming & Development : Alexandra Zaïnal
Original concept : Baudouin d'Aumeries
Technical & hardware support : Manuel Goepfert
Assistance : Marc-Olivier Méhu




SOURCES & CREDITS :

   NOAA